createdAt,value
2023-03-22T00:00:28.650Z,0.00
2023-03-22T00:01:28.664Z,0.00
2023-03-22T00:02:28.660Z,0.00
2023-03-22T00:03:28.619Z,0.00
2023-03-22T00:04:28.604Z,0.00
2023-03-22T00:05:28.577Z,0.00
2023-03-22T00:06:28.563Z,0.00
2023-03-22T00:07:28.601Z,0.00
2023-03-22T00:08:28.541Z,0.00
2023-03-22T00:09:28.541Z,0.00
2023-03-22T00:10:28.513Z,0.00
2023-03-22T00:11:28.515Z,0.00
2023-03-22T00:12:28.541Z,0.00
2023-03-22T00:13:28.493Z,0.00
2023-03-22T00:14:28.479Z,0.00
2023-03-22T00:15:28.494Z,0.00
2023-03-22T00:16:28.509Z,0.00
2023-03-22T00:17:28.496Z,0.00
2023-03-22T00:18:28.433Z,0.00
2023-03-22T00:19:28.445Z,0.00
2023-03-22T00:20:28.401Z,0.00
2023-03-22T00:21:28.409Z,0.00
2023-03-22T00:22:28.413Z,0.00
2023-03-22T00:23:28.408Z,0.00
2023-03-22T00:24:28.368Z,0.00
2023-03-22T00:25:28.357Z,0.00
2023-03-22T00:26:28.348Z,0.00
2023-03-22T00:27:28.334Z,0.00
2023-03-22T00:28:28.353Z,0.00
2023-03-22T00:29:28.315Z,0.00
2023-03-22T00:30:28.287Z,0.00
2023-03-22T00:31:28.311Z,0.00
2023-03-22T00:32:28.281Z,0.00
2023-03-22T00:33:28.327Z,0.00
2023-03-22T00:34:28.248Z,0.00
2023-03-22T00:35:28.242Z,0.00
2023-03-22T00:36:28.234Z,0.00
2023-03-22T00:37:28.219Z,0.00
2023-03-22T00:38:41.441Z,0.00
2023-03-22T00:39:29.201Z,0.00
2023-03-22T00:40:28.206Z,0.00
2023-03-22T00:41:28.187Z,0.00
2023-03-22T00:42:28.146Z,0.00
2023-03-22T00:43:28.186Z,0.00
2023-03-22T00:44:28.132Z,0.00
2023-03-22T00:45:28.137Z,0.00
2023-03-22T00:46:28.139Z,0.00
2023-03-22T00:47:28.129Z,0.00
2023-03-22T00:48:28.129Z,0.00
2023-03-22T00:49:28.106Z,0.00
2023-03-22T00:50:28.077Z,0.00
2023-03-22T00:51:28.065Z,0.00
2023-03-22T00:52:28.043Z,0.00
2023-03-22T00:53:28.075Z,0.00
2023-03-22T00:54:28.042Z,0.00
2023-03-22T00:55:28.097Z,0.00
2023-03-22T00:56:28.005Z,0.00
2023-03-22T00:57:27.990Z,0.00
2023-03-22T00:58:28.009Z,0.00
2023-03-22T00:59:27.977Z,0.00
2023-03-22T01:00:27.966Z,0.00
2023-03-22T01:01:28.006Z,0.00
2023-03-22T01:02:27.937Z,0.00
2023-03-22T01:03:28.009Z,0.00
2023-03-22T01:04:27.927Z,0.00
2023-03-22T01:05:27.909Z,0.00
2023-03-22T01:06:27.897Z,0.00
2023-03-22T01:07:27.900Z,0.00
2023-03-22T01:08:27.909Z,0.00
2023-03-22T01:09:27.901Z,0.00
2023-03-22T01:10:27.857Z,0.00
2023-03-22T01:11:27.840Z,0.00
2023-03-22T01:12:27.853Z,0.00
2023-03-22T01:13:27.839Z,0.00
2023-03-22T01:14:27.832Z,0.00
2023-03-22T01:15:27.782Z,0.00
2023-03-22T01:16:27.859Z,0.00
2023-03-22T01:17:27.790Z,0.00
2023-03-22T01:18:27.766Z,0.00
2023-03-22T01:19:27.793Z,0.00
2023-03-22T01:20:27.732Z,0.00
2023-03-22T01:21:27.729Z,0.00
2023-03-22T01:22:27.710Z,0.00
2023-03-22T01:23:27.692Z,0.00
2023-03-22T01:24:27.724Z,0.00
2023-03-22T01:25:27.681Z,0.00
2023-03-22T01:26:27.678Z,0.00
2023-03-22T01:27:27.654Z,0.00
2023-03-22T01:28:27.672Z,0.00
2023-03-22T01:29:27.666Z,0.00
2023-03-22T01:30:27.658Z,0.00
2023-03-22T01:31:27.626Z,0.00
2023-03-22T01:32:27.595Z,0.00
2023-03-22T01:33:27.587Z,0.00
2023-03-22T01:34:27.607Z,0.00
2023-03-22T01:35:27.612Z,0.00
2023-03-22T01:36:27.540Z,0.00
2023-03-22T01:37:27.560Z,0.00
2023-03-22T01:38:27.536Z,0.00
2023-03-22T01:39:27.550Z,0.00
2023-03-22T01:40:27.503Z,0.00
2023-03-22T01:41:27.520Z,0.00
2023-03-22T01:42:27.498Z,0.00
2023-03-22T01:43:27.483Z,0.00
2023-03-22T01:44:27.523Z,0.00
2023-03-22T01:45:27.460Z,0.00
2023-03-22T01:46:27.448Z,0.00
2023-03-22T01:47:27.424Z,0.00
2023-03-22T01:48:27.428Z,0.00
2023-03-22T01:49:27.468Z,0.00
2023-03-22T01:50:27.394Z,0.00
2023-03-22T01:51:27.399Z,0.00
2023-03-22T01:52:27.371Z,0.00
2023-03-22T01:53:27.441Z,0.00
2023-03-22T01:54:27.385Z,0.00
2023-03-22T01:55:27.384Z,0.00
2023-03-22T01:56:27.339Z,0.00
2023-03-22T01:57:27.323Z,0.00
2023-03-22T01:58:27.313Z,0.00
2023-03-22T01:59:27.339Z,0.00
2023-03-22T02:00:27.286Z,0.00
2023-03-22T02:01:27.371Z,0.00
2023-03-22T02:02:27.297Z,0.00
2023-03-22T02:03:27.239Z,0.00
2023-03-22T02:04:27.316Z,0.00
2023-03-22T02:05:27.262Z,0.00
2023-03-22T02:06:27.235Z,0.00
2023-03-22T02:07:27.221Z,0.00
2023-03-22T02:08:27.205Z,0.00
2023-03-22T02:09:27.180Z,0.00
2023-03-22T02:10:27.230Z,0.00
2023-03-22T02:11:27.181Z,0.00
2023-03-22T02:12:27.140Z,0.00
2023-03-22T02:13:27.132Z,0.00
2023-03-22T02:14:27.502Z,0.00
2023-03-22T02:15:27.153Z,0.00
2023-03-22T02:16:27.118Z,0.00
2023-03-22T02:17:27.106Z,0.00
2023-03-22T02:18:27.078Z,0.00
2023-03-22T02:19:27.069Z,0.00
2023-03-22T02:20:27.091Z,0.00
2023-03-22T02:21:27.038Z,0.00
2023-03-22T02:22:27.044Z,0.00
2023-03-22T02:23:27.016Z,0.00
2023-03-22T02:24:27.025Z,0.00
2023-03-22T02:25:27.058Z,0.00
2023-03-22T02:26:26.993Z,0.00
2023-03-22T02:27:26.990Z,0.00
2023-03-22T02:28:26.985Z,0.00
2023-03-22T02:29:26.990Z,0.00
2023-03-22T02:30:26.987Z,0.00
2023-03-22T02:31:27.000Z,0.00
2023-03-22T02:32:26.967Z,0.00
2023-03-22T02:33:26.911Z,0.00
2023-03-22T02:34:26.915Z,0.00
2023-03-22T02:35:27.031Z,0.00
2023-03-22T02:36:26.888Z,0.00
2023-03-22T02:37:26.862Z,0.00
2023-03-22T02:38:26.886Z,0.00
2023-03-22T02:39:26.889Z,0.00
2023-03-22T02:40:26.915Z,0.00
2023-03-22T02:41:26.828Z,0.00
2023-03-22T02:42:26.819Z,0.00
2023-03-22T02:43:26.800Z,0.00
2023-03-22T02:44:26.861Z,0.00
2023-03-22T02:45:26.816Z,0.00
2023-03-22T02:46:26.827Z,0.00
2023-03-22T02:47:26.755Z,0.00
2023-03-22T02:48:26.820Z,0.00
2023-03-22T02:49:26.757Z,0.00
2023-03-22T02:50:26.746Z,0.00
2023-03-22T02:51:26.717Z,0.00
2023-03-22T02:52:26.690Z,0.00
2023-03-22T02:53:26.696Z,0.00
2023-03-22T02:54:26.766Z,0.00
2023-03-22T02:55:26.707Z,0.00
2023-03-22T02:56:26.651Z,0.00
2023-03-22T02:57:26.640Z,0.00
2023-03-22T02:58:26.655Z,0.00
2023-03-22T02:59:26.675Z,0.00
2023-03-22T03:00:26.652Z,0.00
2023-03-22T03:01:26.591Z,0.00
2023-03-22T03:02:26.677Z,0.00
2023-03-22T03:03:26.568Z,0.00
2023-03-22T03:04:26.568Z,0.00
2023-03-22T03:05:26.596Z,0.00
2023-03-22T03:06:26.559Z,0.00
2023-03-22T03:07:26.539Z,0.00
2023-03-22T03:08:26.557Z,0.00
2023-03-22T03:09:26.516Z,0.00
2023-03-22T03:10:26.590Z,0.00
2023-03-22T03:11:26.487Z,0.00
2023-03-22T03:12:26.501Z,0.00
2023-03-22T03:13:26.464Z,0.00
2023-03-22T03:14:26.533Z,0.00
2023-03-22T03:15:26.486Z,0.00
2023-03-22T03:16:26.558Z,0.00
2023-03-22T03:17:26.444Z,0.00
2023-03-22T03:18:26.398Z,0.00
2023-03-22T03:19:26.430Z,0.00
2023-03-22T03:20:26.416Z,0.00
2023-03-22T03:21:26.407Z,0.00
2023-03-22T03:22:26.400Z,0.00
2023-03-22T03:23:26.393Z,0.00
2023-03-22T03:24:26.328Z,0.00
2023-03-22T03:25:26.366Z,0.00
2023-03-22T03:26:26.323Z,0.00
2023-03-22T03:27:26.301Z,0.00
2023-03-22T03:28:26.295Z,0.00
2023-03-22T03:29:26.283Z,0.00
2023-03-22T03:30:26.324Z,0.00
2023-03-22T03:31:26.400Z,0.00
2023-03-22T03:32:26.271Z,0.00
2023-03-22T03:33:26.285Z,0.00
2023-03-22T03:34:26.251Z,0.00
2023-03-22T03:35:26.244Z,0.00
2023-03-22T03:36:26.269Z,0.00
2023-03-22T03:37:26.217Z,0.00
2023-03-22T03:38:26.177Z,0.00
2023-03-22T03:39:26.202Z,0.00
2023-03-22T03:40:26.159Z,0.00
2023-03-22T03:41:26.187Z,0.00
2023-03-22T03:42:26.167Z,0.00
2023-03-22T03:43:26.146Z,0.00
2023-03-22T03:44:26.195Z,0.00
2023-03-22T03:45:26.175Z,0.00
2023-03-22T03:46:26.143Z,0.00
2023-03-22T03:47:26.096Z,0.00
2023-03-22T03:48:26.123Z,0.00
2023-03-22T03:49:26.058Z,0.00
2023-03-22T03:50:26.076Z,0.00
2023-03-22T03:51:26.093Z,0.00
2023-03-22T03:52:26.033Z,0.00
2023-03-22T03:53:26.017Z,0.00
2023-03-22T03:54:26.023Z,0.00
2023-03-22T03:55:25.999Z,0.00
2023-03-22T03:56:26.038Z,0.00
2023-03-22T03:57:25.955Z,0.00
2023-03-22T03:58:25.977Z,0.00
2023-03-22T03:59:25.980Z,0.00
2023-03-22T04:00:25.949Z,0.00
2023-03-22T04:01:25.952Z,0.00
2023-03-22T04:02:25.996Z,0.00
2023-03-22T04:03:25.906Z,0.00
2023-03-22T04:04:25.982Z,0.00
2023-03-22T04:05:25.909Z,0.00
2023-03-22T04:06:25.919Z,0.00
2023-03-22T04:07:25.863Z,0.00
2023-03-22T04:08:25.833Z,0.00
2023-03-22T04:09:25.820Z,0.00
2023-03-22T04:10:25.820Z,0.00
2023-03-22T04:11:25.835Z,0.00
2023-03-22T04:12:25.828Z,0.00
2023-03-22T04:13:25.779Z,0.00
2023-03-22T04:14:25.796Z,0.00
2023-03-22T04:15:25.754Z,0.00
2023-03-22T04:16:25.842Z,0.00
2023-03-22T04:17:25.744Z,0.00
2023-03-22T04:18:25.740Z,0.00
2023-03-22T04:19:25.712Z,0.00
2023-03-22T04:20:25.698Z,0.00
2023-03-22T04:21:25.740Z,0.00
2023-03-22T04:22:25.689Z,0.00
2023-03-22T04:23:25.704Z,0.00
2023-03-22T04:24:25.671Z,0.00
2023-03-22T04:25:25.639Z,0.00
2023-03-22T04:26:26.828Z,0.00
2023-03-22T04:27:25.617Z,0.00
2023-03-22T04:28:25.603Z,0.00
2023-03-22T04:29:25.605Z,0.00
2023-03-22T04:30:25.590Z,0.00
2023-03-22T04:31:25.715Z,0.00
2023-03-22T04:32:25.560Z,0.00
2023-03-22T04:33:25.555Z,0.00
2023-03-22T04:34:25.556Z,0.00
2023-03-22T04:35:25.580Z,0.00
2023-03-22T04:36:25.559Z,0.00
2023-03-22T04:37:25.510Z,0.00
2023-03-22T04:38:25.489Z,0.00
2023-03-22T04:39:25.485Z,0.00
2023-03-22T04:40:25.479Z,0.00
2023-03-22T04:41:25.492Z,0.00
2023-03-22T04:42:25.491Z,0.00
2023-03-22T04:43:25.434Z,0.00
2023-03-22T04:44:25.422Z,0.00
2023-03-22T04:45:25.413Z,0.00
2023-03-22T04:46:25.467Z,0.00
2023-03-22T04:47:25.393Z,0.00
2023-03-22T04:48:25.379Z,0.00
2023-03-22T04:49:25.371Z,0.00
2023-03-22T04:50:25.372Z,0.00
2023-03-22T04:51:25.370Z,0.00
2023-03-22T04:52:25.351Z,0.00
2023-03-22T04:53:25.323Z,5.62
2023-03-22T04:54:25.317Z,5.62
2023-03-22T04:55:25.302Z,5.62
2023-03-22T04:56:25.337Z,5.62
2023-03-22T04:57:25.277Z,5.62
2023-03-22T04:58:25.258Z,11.25
2023-03-22T04:59:25.249Z,11.25
2023-03-22T05:00:25.227Z,11.25
2023-03-22T05:01:25.283Z,16.88
2023-03-22T05:02:25.282Z,16.88
2023-03-22T05:03:25.192Z,22.50
2023-03-22T05:04:25.187Z,22.50
2023-03-22T05:05:25.193Z,28.12
2023-03-22T05:06:25.217Z,28.12
2023-03-22T05:07:25.158Z,33.75
2023-03-22T05:08:25.170Z,33.75
2023-03-22T05:09:25.136Z,33.75
2023-03-22T05:10:25.131Z,39.38
2023-03-22T05:11:25.153Z,45.00
2023-03-22T05:12:25.114Z,45.00
2023-03-22T05:13:25.090Z,50.62
2023-03-22T05:14:25.095Z,56.25
2023-03-22T05:15:25.081Z,61.88
2023-03-22T05:16:25.118Z,67.50
2023-03-22T05:17:25.070Z,73.12
2023-03-22T05:18:25.040Z,78.75
2023-03-22T05:19:25.014Z,78.75
2023-03-22T05:20:25.011Z,84.38
2023-03-22T05:21:25.024Z,90.00
2023-03-22T05:22:24.985Z,90.00
2023-03-22T05:23:24.976Z,95.62
2023-03-22T05:24:24.993Z,95.62
2023-03-22T05:25:24.950Z,95.62
2023-03-22T05:26:24.975Z,95.62
2023-03-22T05:27:24.947Z,101.25
2023-03-22T05:28:24.951Z,101.25
2023-03-22T05:29:24.923Z,106.88
2023-03-22T05:30:24.913Z,106.88
2023-03-22T05:31:24.948Z,112.50
2023-03-22T05:32:24.870Z,112.50
2023-03-22T05:33:24.869Z,112.50
2023-03-22T05:34:24.854Z,118.12
2023-03-22T05:35:24.897Z,118.12
2023-03-22T05:36:24.866Z,118.12
2023-03-22T05:37:24.832Z,118.12
2023-03-22T05:38:24.822Z,123.75
2023-03-22T05:39:24.820Z,123.75
2023-03-22T05:40:24.801Z,129.38
2023-03-22T05:41:24.823Z,135.00
2023-03-22T05:42:24.767Z,140.62
2023-03-22T05:43:24.763Z,146.25
2023-03-22T05:44:24.735Z,157.50
2023-03-22T05:45:24.722Z,163.12
2023-03-22T05:46:24.805Z,174.38
2023-03-22T05:47:24.708Z,185.62
2023-03-22T05:48:24.753Z,191.25
2023-03-22T05:49:24.676Z,202.50
2023-03-22T05:50:24.698Z,208.12
2023-03-22T05:51:24.713Z,213.75
2023-03-22T05:52:24.665Z,219.38
2023-03-22T05:53:24.647Z,219.38
2023-03-22T05:54:24.632Z,219.38
2023-03-22T05:55:24.644Z,219.38
2023-03-22T05:56:24.887Z,225.00
2023-03-22T05:57:24.656Z,230.62
2023-03-22T05:58:24.636Z,236.25
2023-03-22T05:59:24.613Z,236.25
2023-03-22T06:00:24.587Z,241.88
2023-03-22T06:01:24.619Z,247.50
2023-03-22T06:02:24.575Z,258.75
2023-03-22T06:03:24.590Z,270.00
2023-03-22T06:04:24.523Z,281.25
2023-03-22T06:05:24.494Z,286.88
2023-03-22T06:06:24.546Z,298.12
2023-03-22T06:07:24.498Z,309.38
2023-03-22T06:08:26.513Z,320.62
2023-03-22T06:09:24.477Z,326.25
2023-03-22T06:10:24.467Z,326.25
2023-03-22T06:11:24.521Z,326.25
2023-03-22T06:12:24.655Z,337.50
2023-03-22T06:13:24.492Z,331.88
2023-03-22T06:14:24.447Z,331.88
2023-03-22T06:15:24.446Z,343.12
2023-03-22T06:16:24.471Z,354.38
2023-03-22T06:17:24.429Z,365.62
2023-03-22T06:18:24.395Z,382.50
2023-03-22T06:19:24.393Z,399.38
2023-03-22T06:20:24.370Z,410.62
2023-03-22T06:21:24.403Z,427.50
2023-03-22T06:22:24.349Z,427.50
2023-03-22T06:23:24.329Z,433.12
2023-03-22T06:24:24.324Z,438.75
2023-03-22T06:25:24.321Z,438.75
2023-03-22T06:26:24.406Z,433.12
2023-03-22T06:27:24.281Z,427.50
2023-03-22T06:28:24.268Z,427.50
2023-03-22T06:29:24.263Z,416.25
2023-03-22T06:30:24.283Z,416.25
2023-03-22T06:31:24.286Z,410.62
2023-03-22T06:32:24.206Z,405.00
2023-03-22T06:33:24.196Z,393.75
2023-03-22T06:34:24.170Z,393.75
2023-03-22T06:35:24.236Z,388.12
2023-03-22T06:36:24.222Z,388.12
2023-03-22T06:37:24.153Z,376.88
2023-03-22T06:38:24.133Z,371.25
2023-03-22T06:39:24.154Z,360.00
2023-03-22T06:40:24.126Z,348.75
2023-03-22T06:41:24.142Z,348.75
2023-03-22T06:42:24.090Z,348.75
2023-03-22T06:43:24.110Z,354.38
2023-03-22T06:44:24.078Z,354.38
2023-03-22T06:45:24.098Z,354.38
2023-03-22T06:46:24.157Z,360.00
2023-03-22T06:47:24.055Z,360.00
2023-03-22T06:48:24.080Z,360.00
2023-03-22T06:49:24.033Z,365.62
2023-03-22T06:50:24.012Z,371.25
2023-03-22T06:51:24.056Z,382.50
2023-03-22T06:52:23.998Z,393.75
2023-03-22T06:53:23.996Z,410.62
2023-03-22T06:54:23.962Z,421.88
2023-03-22T06:55:23.964Z,433.12
2023-03-22T06:56:23.978Z,444.38
2023-03-22T06:57:23.938Z,461.25
2023-03-22T06:58:23.921Z,472.50
2023-03-22T06:59:23.936Z,489.38
2023-03-22T07:00:23.908Z,495.00
2023-03-22T07:01:24.041Z,511.88
2023-03-22T07:02:23.851Z,517.50
2023-03-22T07:03:23.933Z,523.12
2023-03-22T07:04:23.863Z,528.75
2023-03-22T07:05:23.827Z,534.38
2023-03-22T07:06:23.861Z,534.38
2023-03-22T07:07:23.807Z,540.00
2023-03-22T07:08:23.803Z,545.62
2023-03-22T07:09:23.784Z,551.25
2023-03-22T07:10:23.803Z,545.62
2023-03-22T07:11:23.813Z,540.00
2023-03-22T07:12:23.754Z,540.00
2023-03-22T07:13:23.754Z,540.00
2023-03-22T07:14:23.708Z,545.62
2023-03-22T07:15:23.728Z,551.25
2023-03-22T07:16:23.874Z,556.88
2023-03-22T07:17:23.717Z,562.50
2023-03-22T07:18:23.694Z,568.12
2023-03-22T07:19:23.678Z,573.75
2023-03-22T07:20:23.690Z,573.75
2023-03-22T07:21:23.683Z,585.00
2023-03-22T07:22:23.682Z,596.25
2023-03-22T07:23:23.640Z,601.88
2023-03-22T07:24:23.630Z,613.12
2023-03-22T07:25:23.633Z,618.75
2023-03-22T07:26:23.646Z,618.75
2023-03-22T07:27:23.616Z,624.38
2023-03-22T07:28:23.586Z,630.00
2023-03-22T07:29:23.578Z,630.00
2023-03-22T07:30:23.587Z,635.62
2023-03-22T07:31:23.567Z,635.62
2023-03-22T07:32:23.622Z,663.75
2023-03-22T07:33:23.550Z,708.75
2023-03-22T07:34:23.529Z,669.38
2023-03-22T07:35:25.647Z,680.62
2023-03-22T07:36:23.527Z,663.75
2023-03-22T07:37:23.491Z,663.75
2023-03-22T07:38:23.476Z,658.12
2023-03-22T07:39:23.450Z,658.12
2023-03-22T07:40:23.429Z,663.75
2023-03-22T07:41:23.519Z,675.00
2023-03-22T07:42:23.419Z,686.25
2023-03-22T07:43:23.432Z,703.12
2023-03-22T07:44:23.383Z,720.00
2023-03-22T07:45:23.647Z,736.88
2023-03-22T07:46:23.539Z,748.12
2023-03-22T07:47:38.060Z,759.38
2023-03-22T07:48:24.498Z,770.62
2023-03-22T07:49:23.370Z,787.50
2023-03-22T07:50:23.346Z,804.38
2023-03-22T07:51:23.376Z,826.88
2023-03-22T07:52:23.330Z,843.75
2023-03-22T07:53:23.303Z,888.75
2023-03-22T07:54:33.461Z,894.38
2023-03-22T07:55:24.306Z,916.88
2023-03-22T07:56:23.318Z,950.62
2023-03-22T07:57:23.279Z,995.62
2023-03-22T07:58:23.241Z,1068.75
2023-03-22T07:59:23.244Z,1220.62
2023-03-22T08:00:23.369Z,1355.62
2023-03-22T08:01:23.232Z,1192.50
2023-03-22T08:02:23.263Z,1310.62
2023-03-22T08:03:23.304Z,1260.00
2023-03-22T08:04:23.211Z,1569.38
2023-03-22T08:05:23.166Z,1305.00
2023-03-22T08:06:23.179Z,1366.88
2023-03-22T08:07:23.160Z,1378.12
2023-03-22T08:08:23.136Z,1372.50
2023-03-22T08:09:23.136Z,1355.62
2023-03-22T08:10:23.121Z,1586.25
2023-03-22T08:11:23.135Z,1389.38
2023-03-22T08:12:23.240Z,1260.00
2023-03-22T08:13:23.086Z,1355.62
2023-03-22T08:14:35.462Z,1254.38
2023-03-22T08:15:24.051Z,1518.75
2023-03-22T08:16:23.108Z,1231.88
2023-03-22T08:17:23.042Z,1355.62
2023-03-22T08:18:23.019Z,1254.38
2023-03-22T08:19:23.010Z,1406.25
2023-03-22T08:20:23.069Z,1333.12
2023-03-22T08:21:23.081Z,1260.00
2023-03-22T08:22:22.961Z,1158.75
2023-03-22T08:23:38.612Z,1113.75
2023-03-22T08:24:23.952Z,1153.12
2023-03-22T08:25:22.954Z,1305.00
2023-03-22T08:26:22.998Z,1530.00
2023-03-22T08:27:22.933Z,1400.62
2023-03-22T08:28:22.901Z,2120.62
2023-03-22T08:29:22.925Z,2368.12
2023-03-22T08:30:22.870Z,1665.00
2023-03-22T08:31:22.965Z,1541.25
2023-03-22T08:32:22.844Z,2148.75
2023-03-22T08:33:22.860Z,1867.50
2023-03-22T08:34:22.857Z,2064.38
2023-03-22T08:35:22.849Z,1378.12
2023-03-22T08:36:22.875Z,1552.50
2023-03-22T08:37:22.797Z,2002.50
2023-03-22T08:38:22.794Z,2148.75
2023-03-22T08:39:23.669Z,1625.62
2023-03-22T08:40:22.819Z,1350.00
2023-03-22T08:41:22.789Z,1805.62
2023-03-22T08:42:22.729Z,1485.00
2023-03-22T08:43:22.765Z,1411.88
2023-03-22T08:44:22.730Z,2480.62
2023-03-22T08:45:22.725Z,1473.75
2023-03-22T08:46:22.773Z,1423.12
2023-03-22T08:47:22.694Z,1575.00
2023-03-22T08:48:22.810Z,1462.50
2023-03-22T08:49:22.686Z,1597.50
2023-03-22T08:50:22.667Z,1743.75
2023-03-22T08:51:22.669Z,2475.00
2023-03-22T08:52:22.678Z,1636.88
2023-03-22T08:53:22.628Z,1552.50
2023-03-22T08:54:22.625Z,1963.12
2023-03-22T08:55:22.612Z,2002.50
2023-03-22T08:56:22.590Z,1676.25
2023-03-22T08:57:22.611Z,1614.38
2023-03-22T08:58:22.551Z,1659.38
2023-03-22T08:59:22.535Z,1501.88
2023-03-22T09:00:22.528Z,1406.25
2023-03-22T09:01:22.588Z,1496.25
2023-03-22T09:02:22.614Z,1456.88
2023-03-22T09:03:22.523Z,1479.38
2023-03-22T09:04:22.540Z,1524.38
2023-03-22T09:05:22.468Z,1636.88
2023-03-22T09:06:22.486Z,1490.62
2023-03-22T09:07:22.508Z,1473.75
2023-03-22T09:08:22.453Z,1479.38
2023-03-22T09:09:22.458Z,2176.88
2023-03-22T09:10:22.496Z,1659.38
2023-03-22T09:11:22.453Z,1771.88
2023-03-22T09:12:22.545Z,1783.12
2023-03-22T09:13:22.421Z,1693.12
2023-03-22T09:14:22.417Z,1693.12
2023-03-22T09:15:22.375Z,2041.88
2023-03-22T09:16:22.411Z,1732.50
2023-03-22T09:17:22.600Z,1760.62
2023-03-22T09:18:22.361Z,2193.75
2023-03-22T09:19:22.326Z,1710.00
2023-03-22T09:20:22.344Z,1833.75
2023-03-22T09:21:22.310Z,1535.62
2023-03-22T09:22:22.306Z,1524.38
2023-03-22T09:23:22.288Z,1546.88
2023-03-22T09:24:22.260Z,1546.88
2023-03-22T09:25:22.263Z,1513.12
2023-03-22T09:26:22.308Z,1620.00
2023-03-22T09:27:22.280Z,1591.88
2023-03-22T09:28:22.254Z,1552.50
2023-03-22T09:29:22.213Z,1586.25
2023-03-22T09:30:22.182Z,1620.00
2023-03-22T09:31:22.259Z,1631.25
2023-03-22T09:32:22.219Z,1608.75
2023-03-22T09:33:22.159Z,1625.62
2023-03-22T09:34:22.175Z,1569.38
2023-03-22T09:35:22.198Z,1563.75
2023-03-22T09:36:22.166Z,1608.75
2023-03-22T09:37:22.155Z,1591.88
2023-03-22T09:38:22.118Z,1625.62
2023-03-22T09:39:22.119Z,1563.75
2023-03-22T09:40:22.098Z,1676.25
2023-03-22T09:41:22.095Z,1665.00
2023-03-22T09:42:22.123Z,1614.38
2023-03-22T09:43:22.088Z,1575.00
2023-03-22T09:44:22.037Z,1659.38
2023-03-22T09:45:22.065Z,2503.12
2023-03-22T09:46:22.070Z,2986.88
2023-03-22T09:47:22.073Z,1828.12
2023-03-22T09:48:22.062Z,2266.88
2023-03-22T09:49:21.997Z,2306.25
2023-03-22T09:50:22.093Z,2385.00
2023-03-22T09:51:21.952Z,2002.50
2023-03-22T09:52:22.068Z,1884.38
2023-03-22T09:53:21.950Z,2295.00
2023-03-22T09:54:21.971Z,2036.25
2023-03-22T09:55:21.931Z,3054.38
2023-03-22T09:56:21.923Z,2244.38
2023-03-22T09:57:21.925Z,2182.50
2023-03-22T09:58:21.878Z,2092.50
2023-03-22T09:59:21.876Z,2126.25
2023-03-22T10:00:22.047Z,2182.50
2023-03-22T10:01:22.010Z,2570.62
2023-03-22T10:02:21.949Z,2936.25
2023-03-22T10:03:21.840Z,3369.38
2023-03-22T10:04:21.866Z,2925.00
2023-03-22T10:05:21.808Z,2615.62
2023-03-22T10:06:21.810Z,3808.12
2023-03-22T10:07:21.847Z,3695.62
2023-03-22T10:08:21.763Z,3251.25
2023-03-22T10:09:21.764Z,3228.75
2023-03-22T10:10:21.757Z,3358.12
2023-03-22T10:11:21.755Z,2576.25
2023-03-22T10:12:21.762Z,3020.62
2023-03-22T10:13:21.727Z,2992.50
2023-03-22T10:14:21.764Z,3054.38
2023-03-22T10:15:21.734Z,3285.00
2023-03-22T10:16:21.735Z,3054.38
2023-03-22T10:17:21.708Z,2581.88
2023-03-22T10:18:21.675Z,3251.25
2023-03-22T10:19:21.644Z,3600.00
2023-03-22T10:20:21.669Z,3701.25
2023-03-22T10:21:21.617Z,3211.88
2023-03-22T10:22:21.659Z,3588.75
2023-03-22T10:23:21.617Z,3802.50
2023-03-22T10:24:21.623Z,3380.62
2023-03-22T10:25:21.648Z,3763.12
2023-03-22T10:26:21.570Z,3605.62
2023-03-22T10:27:21.618Z,2340.00
2023-03-22T10:28:21.541Z,2486.25
2023-03-22T10:29:21.557Z,3009.38
2023-03-22T10:30:21.554Z,2700.00
2023-03-22T10:31:21.594Z,2430.00
2023-03-22T10:32:21.549Z,2373.75
2023-03-22T10:33:21.518Z,2244.38
2023-03-22T10:34:21.584Z,2340.00
2023-03-22T10:35:21.572Z,2086.88
2023-03-22T10:36:21.463Z,2075.62
2023-03-22T10:37:21.514Z,2002.50
2023-03-22T10:38:21.473Z,1890.00
2023-03-22T10:39:21.447Z,1856.25
2023-03-22T10:40:21.415Z,1890.00
2023-03-22T10:41:21.398Z,1923.75
2023-03-22T10:42:21.415Z,1940.62
2023-03-22T10:43:21.408Z,1918.12
2023-03-22T10:44:21.405Z,1957.50
2023-03-22T10:45:21.397Z,1923.75
2023-03-22T10:46:21.429Z,1935.00
2023-03-22T10:47:21.345Z,1552.50
2023-03-22T10:48:21.378Z,1614.38
2023-03-22T10:49:21.377Z,1653.75
2023-03-22T10:50:21.313Z,1906.88
2023-03-22T10:51:21.329Z,1833.75
2023-03-22T10:52:21.311Z,1676.25
2023-03-22T10:53:21.318Z,1687.50
2023-03-22T10:54:21.297Z,1659.38
2023-03-22T10:55:21.256Z,1614.38
2023-03-22T10:56:21.256Z,1451.25
2023-03-22T10:57:21.236Z,748.12
2023-03-22T10:58:21.277Z,1383.75
2023-03-22T10:59:21.200Z,1355.62
2023-03-22T11:00:21.209Z,1946.25
2023-03-22T11:01:21.295Z,2233.12
2023-03-22T11:02:21.261Z,2176.88
2023-03-22T11:03:21.194Z,1400.62
2023-03-22T11:04:21.168Z,613.12
2023-03-22T11:05:21.145Z,613.12
2023-03-22T11:06:21.153Z,821.25
2023-03-22T11:07:21.110Z,686.25
2023-03-22T11:08:21.156Z,618.75
2023-03-22T11:09:21.088Z,663.75
2023-03-22T11:10:21.148Z,714.38
2023-03-22T11:11:21.080Z,714.38
2023-03-22T11:12:21.081Z,838.12
2023-03-22T11:13:21.120Z,866.25
2023-03-22T11:14:21.073Z,1102.50
2023-03-22T11:15:21.045Z,1434.38
2023-03-22T11:16:21.085Z,2475.00
2023-03-22T11:17:21.005Z,1428.75
2023-03-22T11:18:21.049Z,1749.38
2023-03-22T11:19:20.993Z,2930.62
2023-03-22T11:20:21.037Z,2829.38
2023-03-22T11:21:20.961Z,1282.50
2023-03-22T11:22:20.980Z,1023.75
2023-03-22T11:23:20.980Z,990.00
2023-03-22T11:24:20.929Z,2188.12
2023-03-22T11:25:20.957Z,2497.50
2023-03-22T11:26:20.922Z,2244.38
2023-03-22T11:27:20.897Z,2289.38
2023-03-22T11:28:20.902Z,2379.38
2023-03-22T11:29:20.867Z,2368.12
2023-03-22T11:30:20.853Z,2401.88
2023-03-22T11:31:20.917Z,1215.00
2023-03-22T11:32:20.953Z,984.38
2023-03-22T11:33:20.888Z,860.62
2023-03-22T11:34:20.831Z,849.38
2023-03-22T11:35:20.852Z,838.12
2023-03-22T11:36:20.812Z,922.50
2023-03-22T11:37:20.778Z,945.00
2023-03-22T11:38:20.818Z,1012.50
2023-03-22T11:39:20.761Z,1805.62
2023-03-22T11:40:20.741Z,1659.38
2023-03-22T11:41:20.733Z,1321.88
2023-03-22T11:42:20.735Z,1276.88
2023-03-22T11:43:20.726Z,1220.62
2023-03-22T11:44:20.775Z,1546.88
2023-03-22T11:45:20.703Z,1068.75
2023-03-22T11:46:20.844Z,1963.12
2023-03-22T11:47:20.696Z,2182.50
2023-03-22T11:48:20.784Z,2413.12
2023-03-22T11:49:20.706Z,2491.88
2023-03-22T11:50:20.664Z,2323.12
2023-03-22T11:51:21.430Z,2323.12
2023-03-22T11:52:20.651Z,2446.88
2023-03-22T11:53:20.628Z,2356.88
2023-03-22T11:54:20.641Z,1552.50
2023-03-22T11:55:20.607Z,1485.00
2023-03-22T11:56:20.565Z,2165.62
2023-03-22T11:57:20.572Z,911.25
2023-03-22T11:58:21.498Z,781.88
2023-03-22T11:59:20.643Z,821.25
2023-03-22T12:00:20.539Z,2041.88
2023-03-22T12:01:20.545Z,1400.62
2023-03-22T12:02:20.580Z,1451.25
2023-03-22T12:03:20.622Z,2581.88
2023-03-22T12:04:20.727Z,2486.25
2023-03-22T12:05:20.561Z,1462.50
2023-03-22T12:06:20.526Z,1355.62
2023-03-22T12:07:20.444Z,2328.75
2023-03-22T12:08:20.457Z,1957.50
2023-03-22T12:09:20.486Z,1569.38
2023-03-22T12:10:20.414Z,1490.62
2023-03-22T12:11:20.387Z,1400.62
2023-03-22T12:12:20.391Z,1350.00
2023-03-22T12:13:20.391Z,1350.00
2023-03-22T12:14:20.427Z,1518.75
2023-03-22T12:15:20.433Z,1636.88
2023-03-22T12:16:21.164Z,1867.50
2023-03-22T12:17:20.344Z,1091.25
2023-03-22T12:18:20.368Z,1125.00
2023-03-22T12:19:20.369Z,1006.88
2023-03-22T12:20:20.290Z,1035.00
2023-03-22T12:21:20.307Z,1102.50
2023-03-22T12:22:20.299Z,1113.75
2023-03-22T12:23:20.273Z,1068.75
2023-03-22T12:24:20.288Z,1040.62
2023-03-22T12:25:20.237Z,1023.75
2023-03-22T12:26:20.225Z,928.12
2023-03-22T12:27:20.220Z,793.12
2023-03-22T12:28:20.237Z,703.12
2023-03-22T12:29:20.237Z,675.00
2023-03-22T12:30:20.204Z,658.12
2023-03-22T12:31:20.214Z,658.12
2023-03-22T12:32:20.187Z,669.38
2023-03-22T12:33:20.229Z,697.50
2023-03-22T12:34:20.190Z,720.00
2023-03-22T12:35:20.154Z,708.75
2023-03-22T12:36:20.155Z,725.62
2023-03-22T12:37:20.141Z,849.38
2023-03-22T12:38:20.112Z,1085.62
2023-03-22T12:39:20.130Z,1586.25
2023-03-22T12:40:20.215Z,1766.25